Time;durP1;ratioP1;P1;durP2;ratioP2;P2;SDS_P1;SDS_P2;PMS_P1;PMS_P2;Temp;Humidity;BMP_temperature;BMP_pressure;BME280_temperature;BME280_humidity;BME280_pressure;Samples;Min_cycle;Max_cycle;Signal;HPM_P1;HPM_P2
2023/10/02 00:01:06;;;;;;;12.63;6.63;;;17.00;99.90;;;;;;4977799;28;20503;-79
2023/10/02 00:03:34;;;;;;;10.27;6.50;;;17.00;99.90;;;;;;4974321;28;20454;-78
2023/10/02 00:06:02;;;;;;;9.80;5.33;;;17.00;99.90;;;;;;4978460;28;20461;-79
2023/10/02 00:08:39;;;;;;;13.07;7.20;;;17.00;99.90;;;;;;4977664;28;20863;-79
2023/10/02 00:14:18;;;;;;;13.20;7.10;;;17.10;99.90;;;;;;4977172;28;20459;-79
2023/10/02 00:16:42;;;;;;;12.13;7.50;;;17.10;99.90;;;;;;4976810;28;20946;-79
2023/10/02 00:19:22;;;;;;;11.60;6.60;;;17.00;99.90;;;;;;4977751;28;20541;-77
2023/10/02 00:21:50;;;;;;;14.20;6.90;;;17.00;99.90;;;;;;4978689;28;20456;-78
2023/10/02 00:24:18;;;;;;;12.13;6.63;;;17.00;99.90;;;;;;4977447;28;20465;-78
2023/10/02 00:26:45;;;;;;;11.83;6.90;;;17.00;99.90;;;;;;4976944;28;20484;-78
2023/10/02 00:29:12;;;;;;;13.40;7.13;;;17.00;99.90;;;;;;4980083;28;20491;-77
2023/10/02 00:31:42;;;;;;;12.07;6.47;;;17.00;99.90;;;;;;4988197;28;20482;-77
2023/10/02 00:34:09;;;;;;;11.27;6.57;;;17.00;99.90;;;;;;4987925;28;20464;-77
2023/10/02 00:36:36;;;;;;;10.40;6.43;;;17.00;99.90;;;;;;4987920;28;20553;-77
2023/10/02 00:39:25;;;;;;;12.03;7.00;;;17.00;99.90;;;;;;4980644;28;20457;-78
2023/10/02 00:50:11;;;;;;;10.03;6.47;;;16.90;99.90;;;;;;4967355;28;20481;-78
2023/10/02 00:52:40;;;;;;;13.00;7.53;;;16.90;99.90;;;;;;4976659;28;20469;-78
2023/10/02 00:55:09;;;;;;;12.80;7.50;;;16.90;99.90;;;;;;4976237;28;20882;-79
2023/10/02 00:57:39;;;;;;;13.40;8.03;;;16.90;99.90;;;;;;4976097;28;20458;-77
2023/10/02 01:00:15;;;;;;;11.73;6.70;;;16.80;99.90;;;;;;4976429;28;20531;-78
2023/10/02 01:02:45;;;;;;;10.73;6.67;;;16.80;99.90;;;;;;4976036;28;20494;-78
2023/10/02 01:05:14;;;;;;;12.17;6.73;;;16.80;99.90;;;;;;4976551;28;20461;-78
2023/10/02 01:07:42;;;;;;;13.33;7.93;;;16.80;99.90;;;;;;4975730;28;20463;-77
2023/10/02 01:10:17;;;;;;;11.53;7.30;;;16.70;99.90;;;;;;4976867;28;20493;-79
2023/10/02 01:12:49;;;;;;;12.00;7.23;;;16.70;99.90;;;;;;4975664;28;20509;-78
2023/10/02 01:15:19;;;;;;;12.80;5.97;;;16.70;99.90;;;;;;4969787;28;20468;-77
2023/10/02 01:17:49;;;;;;;13.63;6.93;;;16.70;99.90;;;;;;4976370;28;20466;-78
2023/10/02 01:20:32;;;;;;;14.87;6.87;;;16.70;99.90;;;;;;4975032;28;20468;-78
2023/10/02 01:23:16;;;;;;;12.70;6.37;;;16.70;99.90;;;;;;4976835;28;20470;-78
2023/10/02 01:25:45;;;;;;;10.70;6.10;;;16.70;99.90;;;;;;4976077;28;20463;-78
2023/10/02 01:28:13;;;;;;;11.60;6.10;;;16.60;99.90;;;;;;4975954;28;20470;-78
2023/10/02 01:30:42;;;;;;;11.00;6.00;;;16.60;99.90;;;;;;4973060;28;21061;-78
2023/10/02 01:33:21;;;;;;;10.67;6.97;;;16.60;99.90;;;;;;4975996;28;20467;-78
2023/10/02 01:35:51;;;;;;;11.83;6.53;;;16.60;99.90;;;;;;4974357;28;20474;-78
2023/10/02 01:38:21;;;;;;;11.07;6.50;;;16.60;99.90;;;;;;4976323;28;20475;-79
2023/10/02 01:40:53;;;;;;;10.70;7.13;;;16.60;99.90;;;;;;4976253;28;20481;-77
2023/10/02 01:43:23;;;;;;;11.23;7.20;;;16.50;99.90;;;;;;4977412;28;20461;-78
2023/10/02 01:45:54;;;;;;;11.20;6.20;;;16.50;99.90;;;;;;4976974;28;20968;-79
2023/10/02 01:51:15;;;;;;;10.40;6.00;;;16.50;99.90;;;;;;4979490;28;20500;-79
2023/10/02 01:53:42;;;;;;;11.13;6.70;;;16.50;99.90;;;;;;4980357;28;20982;-79
2023/10/02 01:56:12;;;;;;;11.60;6.70;;;16.40;99.90;;;;;;4979631;28;20456;-79
2023/10/02 01:58:40;;;;;;;12.63;7.20;;;16.40;99.90;;;;;;4976262;28;20467;-78
2023/10/02 02:01:09;;;;;;;11.73;6.27;;;16.40;99.90;;;;;;4980343;28;20478;-78
2023/10/02 02:03:40;;;;;;;10.67;6.00;;;16.30;99.90;;;;;;4979871;28;20558;-79
2023/10/02 02:06:11;;;;;;;10.97;6.40;;;16.40;99.90;;;;;;4979740;28;20460;-77
2023/10/02 02:08:40;;;;;;;10.20;6.10;;;16.40;99.90;;;;;;4979437;28;20470;-77
2023/10/02 02:11:16;;;;;;;9.40;5.20;;;16.40;99.90;;;;;;4978402;28;20861;-78
2023/10/02 02:13:46;;;;;;;9.20;6.30;;;16.40;99.90;;;;;;4979293;28;20887;-77
2023/10/02 02:16:15;;;;;;;8.30;4.90;;;16.30;99.90;;;;;;4979660;28;20800;-78
2023/10/02 02:18:43;;;;;;;9.90;5.53;;;16.30;99.90;;;;;;4979244;28;20467;-78
2023/10/02 02:21:15;;;;;;;12.50;6.57;;;16.30;99.90;;;;;;4979792;28;20480;-77
2023/10/02 02:23:42;;;;;;;11.17;6.10;;;16.30;99.90;;;;;;4985917;28;20550;-77
2023/10/02 02:26:09;;;;;;;9.90;5.33;;;16.30;99.90;;;;;;4986135;28;20528;-77
2023/10/02 02:28:43;;;;;;;12.47;6.70;;;16.30;99.90;;;;;;4986316;28;20525;-77
2023/10/02 02:31:29;;;;;;;14.83;6.30;;;16.30;99.90;;;;;;4985902;28;20526;-77
2023/10/02 02:33:57;;;;;;;11.50;6.37;;;16.30;99.90;;;;;;4984253;28;20494;-78
2023/10/02 02:36:25;;;;;;;12.37;5.87;;;16.30;99.90;;;;;;4982827;28;20496;-78
2023/10/02 02:39:15;;;;;;;13.57;7.10;;;16.30;99.90;;;;;;4979255;28;20523;-78
2023/10/02 02:41:43;;;;;;;13.50;6.60;;;16.30;99.90;;;;;;4975952;28;20518;-77
2023/10/02 02:44:29;;;;;;;10.90;5.87;;;16.30;99.90;;;;;;4979980;28;20961;-77
2023/10/02 02:46:57;;;;;;;15.43;6.60;;;16.30;99.90;;;;;;4982555;28;20463;-78
2023/10/02 02:49:26;;;;;;;13.30;6.70;;;16.30;99.90;;;;;;4978327;28;20499;-77
2023/10/02 02:51:55;;;;;;;11.80;6.20;;;16.30;99.90;;;;;;4978611;28;20459;-78
2023/10/02 02:54:25;;;;;;;10.03;5.33;;;16.30;99.90;;;;;;4979011;28;20458;-77
2023/10/02 02:56:57;;;;;;;10.63;5.60;;;16.30;99.90;;;;;;4977025;28;20466;-78
2023/10/02 02:59:27;;;;;;;102.10;14.97;;;16.30;99.90;;;;;;4978196;28;20454;-77
2023/10/02 03:02:08;;;;;;;80.00;41.87;;;16.30;99.90;;;;;;4977354;28;20465;-78
2023/10/02 03:04:36;;;;;;;473.80;436.67;;;16.30;99.90;;;;;;4976349;28;20471;-78
2023/10/02 03:07:09;;;;;;;325.27;302.07;;;16.30;99.90;;;;;;4971089;28;20483;-77
2023/10/02 03:09:36;;;;;;;157.23;143.43;;;16.30;99.90;;;;;;4977952;28;20557;-78
2023/10/02 03:12:05;;;;;;;249.73;230.53;;;16.30;99.90;;;;;;4978177;28;20464;-78
2023/10/02 03:14:33;;;;;;;298.23;277.03;;;16.30;99.90;;;;;;4976284;28;20499;-78
2023/10/02 03:17:22;;;;;;;222.83;205.20;;;16.30;99.90;;;;;;4975821;28;20456;-77
2023/10/02 03:19:49;;;;;;;275.07;252.83;;;16.30;99.90;;;;;;4976709;28;20464;-77
2023/10/02 03:22:17;;;;;;;150.53;136.80;;;16.30;99.90;;;;;;4976768;28;20466;-80
2023/10/02 03:24:46;;;;;;;124.93;112.67;;;16.30;99.90;;;;;;4976196;28;20470;-77
2023/10/02 03:27:14;;;;;;;154.63;140.63;;;16.30;99.90;;;;;;4976001;28;20498;-79
2023/10/02 03:29:42;;;;;;;116.27;104.27;;;16.30;99.90;;;;;;4976643;28;20503;-80
2023/10/02 03:32:11;;;;;;;138.50;125.50;;;16.30;99.90;;;;;;4976633;28;20466;-78
2023/10/02 03:34:38;;;;;;;120.17;107.93;;;16.30;99.90;;;;;;4975617;28;20459;-77
2023/10/02 03:37:14;;;;;;;144.23;131.07;;;16.30;99.90;;;;;;4976307;28;20456;-79
2023/10/02 03:39:59;;;;;;;74.97;24.23;;;16.30;99.90;;;;;;4975206;28;20477;-78
2023/10/02 03:42:26;;;;;;;80.13;38.13;;;16.20;99.90;;;;;;4976376;28;20466;-78
2023/10/02 03:44:56;;;;;;;79.63;36.93;;;16.20;99.90;;;;;;4975535;28;20470;-78
2023/10/02 03:47:23;;;;;;;78.57;33.60;;;16.20;99.90;;;;;;4975773;28;20898;-78
2023/10/02 03:49:51;;;;;;;351.57;322.73;;;16.20;99.90;;;;;;4976727;28;20521;-79
2023/10/02 03:52:19;;;;;;;119.37;107.33;;;16.20;99.90;;;;;;4977705;28;20548;-80
2023/10/02 03:54:46;;;;;;;141.03;128.13;;;16.20;99.90;;;;;;4977291;28;20460;-79
2023/10/02 03:57:37;;;;;;;121.97;109.67;;;16.20;99.90;;;;;;4977200;28;20965;-78
2023/10/02 04:00:18;;;;;;;117.43;104.73;;;16.20;99.90;;;;;;4969849;28;20467;-80
2023/10/02 04:02:46;;;;;;;90.50;57.67;;;16.20;99.90;;;;;;4977404;28;20506;-78
2023/10/02 04:05:30;;;;;;;175.80;147.70;;;16.20;99.90;;;;;;4977142;28;20460;-84
2023/10/02 04:08:12;;;;;;;75.87;24.70;;;16.20;99.90;;;;;;4977545;28;20890;-79
2023/10/02 04:10:55;;;;;;;75.43;21.33;;;16.20;99.90;;;;;;4977862;28;20491;-79
2023/10/02 04:13:23;;;;;;;74.80;25.70;;;16.20;99.90;;;;;;4977896;28;20546;-79
2023/10/02 04:15:53;;;;;;;73.43;19.27;;;16.20;99.90;;;;;;4978451;28;20467;-80
2023/10/02 04:18:45;;;;;;;72.47;17.27;;;16.20;99.90;;;;;;4977198;28;20461;-79
2023/10/02 04:21:09;;;;;;;73.27;20.63;;;16.20;99.90;;;;;;4977410;28;20457;-80
2023/10/02 04:23:42;;;;;;;73.40;20.30;;;16.20;99.90;;;;;;4977783;28;20474;-80
2023/10/02 04:26:19;;;;;;;162.93;148.20;;;16.20;99.90;;;;;;4970508;28;20958;-78
2023/10/02 04:28:49;;;;;;;88.10;52.73;;;16.20;99.90;;;;;;4977126;28;20466;-80
2023/10/02 04:31:22;;;;;;;84.17;43.73;;;16.20;99.90;;;;;;4977527;28;20547;-80
2023/10/02 04:33:54;;;;;;;83.70;45.57;;;16.20;99.90;;;;;;4977451;28;20460;-80
2023/10/02 04:36:31;;;;;;;82.07;40.73;;;16.20;99.90;;;;;;4976440;28;20531;-81
2023/10/02 04:38:59;;;;;;;78.33;27.87;;;16.20;99.90;;;;;;4977388;28;21175;-80
2023/10/02 04:41:28;;;;;;;91.83;55.07;;;16.20;99.90;;;;;;4977995;28;20472;-80
2023/10/02 04:43:57;;;;;;;205.13;187.27;;;16.20;99.90;;;;;;4977794;28;20534;-81
2023/10/02 04:46:26;;;;;;;92.43;62.13;;;16.20;99.90;;;;;;4977739;28;20448;-81
2023/10/02 04:48:59;;;;;;;89.10;57.20;;;16.20;99.90;;;;;;4977246;28;20521;-81
2023/10/02 04:51:28;;;;;;;75.40;28.60;;;16.20;99.90;;;;;;4977802;28;21090;-81
2023/10/02 04:53:56;;;;;;;87.63;45.87;;;16.20;99.90;;;;;;4980357;28;20464;-81
2023/10/02 04:56:25;;;;;;;81.13;36.90;;;16.20;99.90;;;;;;4983937;28;20453;-80
2023/10/02 04:58:57;;;;;;;81.37;41.20;;;16.20;99.90;;;;;;4972594;28;20454;-80
2023/10/02 05:01:24;;;;;;;294.40;269.10;;;16.20;99.90;;;;;;4972660;28;20481;-80
2023/10/02 05:03:53;;;;;;;74.10;19.70;;;16.20;99.90;;;;;;4971011;28;20454;-79
2023/10/02 05:11:50;;;;;;;72.53;17.93;;;16.20;99.90;;;;;;4969016;28;20488;-79
2023/10/02 05:14:20;;;;;;;71.87;16.00;;;16.20;99.90;;;;;;4975781;28;20494;-79
2023/10/02 05:16:50;;;;;;;167.27;149.87;;;16.20;99.90;;;;;;4974173;28;20464;-79
2023/10/02 05:19:16;;;;;;;84.60;43.60;;;16.30;99.90;;;;;;4974971;28;20470;-79
2023/10/02 05:21:49;;;;;;;77.73;27.67;;;16.20;99.90;;;;;;4973005;28;20468;-80
2023/10/02 05:24:17;;;;;;;84.70;36.90;;;16.20;99.90;;;;;;4978338;28;20204;-80
2023/10/02 05:26:46;;;;;;;78.47;30.07;;;16.20;99.90;;;;;;4979375;28;20462;-79
2023/10/02 05:29:17;;;;;;;77.60;32.33;;;16.20;99.90;;;;;;4981962;28;20453;-80
2023/10/02 05:31:45;;;;;;;76.90;23.30;;;16.20;99.90;;;;;;4977869;28;20917;-79
2023/10/02 05:34:18;;;;;;;74.40;22.20;;;16.20;99.90;;;;;;4980171;28;20468;-79
2023/10/02 05:37:03;;;;;;;78.63;34.57;;;16.20;99.90;;;;;;4972784;28;20548;-79
2023/10/02 05:39:31;;;;;;;72.20;17.03;;;16.20;99.90;;;;;;4976363;28;20482;-80
2023/10/02 05:42:05;;;;;;;70.27;18.33;;;16.20;99.90;;;;;;4978014;28;20461;-78
2023/10/02 05:44:33;;;;;;;68.37;11.80;;;16.20;99.90;;;;;;4977564;28;20566;-79
2023/10/02 05:47:05;;;;;;;69.70;13.00;;;16.20;99.90;;;;;;4977107;28;20475;-79
2023/10/02 05:49:32;;;;;;;69.20;12.27;;;16.10;99.90;;;;;;4976178;28;20457;-80
2023/10/02 05:52:02;;;;;;;68.60;13.70;;;16.20;99.90;;;;;;4972485;28;20495;-80
2023/10/02 05:54:35;;;;;;;70.30;15.80;;;16.20;99.90;;;;;;4974910;28;20852;-79
2023/10/02 05:57:09;;;;;;;72.97;21.83;;;16.20;99.90;;;;;;4976022;28;20495;-80
2023/10/02 05:59:46;;;;;;;68.00;13.43;;;16.20;99.90;;;;;;4978513;28;20450;-80
2023/10/02 06:02:14;;;;;;;70.13;15.73;;;16.20;99.90;;;;;;4976199;28;21402;-81
2023/10/02 06:04:47;;;;;;;67.37;11.90;;;16.20;99.90;;;;;;4983941;28;20520;-79
2023/10/02 06:07:19;;;;;;;84.83;41.87;;;16.20;99.90;;;;;;4971133;28;20458;-79
2023/10/02 06:09:46;;;;;;;63.67;56.87;;;16.20;99.90;;;;;;4977518;28;20491;-79
2023/10/02 06:12:18;;;;;;;15.00;8.17;;;16.30;99.90;;;;;;4976769;28;20505;-79
2023/10/02 06:14:45;;;;;;;16.37;7.97;;;16.30;99.90;;;;;;4976639;28;20501;-79
2023/10/02 06:17:12;;;;;;;13.90;7.87;;;16.30;99.90;;;;;;4973253;28;20470;-79
2023/10/02 06:19:44;;;;;;;11.63;7.57;;;16.30;99.90;;;;;;4977237;28;20514;-79
2023/10/02 06:22:14;;;;;;;14.10;7.90;;;16.30;99.90;;;;;;4977419;28;20452;-78
2023/10/02 06:24:42;;;;;;;14.47;7.97;;;16.40;99.90;;;;;;4977757;28;20459;-78
2023/10/02 06:27:14;;;;;;;14.83;8.80;;;16.40;99.90;;;;;;4977037;28;20487;-80
2023/10/02 06:29:47;;;;;;;13.80;8.77;;;16.40;99.90;;;;;;4977547;28;20493;-79
2023/10/02 06:32:19;;;;;;;13.90;8.20;;;16.40;99.90;;;;;;4978005;28;20494;-79
2023/10/02 06:34:47;;;;;;;17.20;7.93;;;16.40;99.90;;;;;;4977514;28;20941;-79
2023/10/02 06:37:16;;;;;;;14.23;8.37;;;16.50;99.90;;;;;;4977527;28;20885;-80
2023/10/02 06:39:45;;;;;;;14.03;7.93;;;16.50;99.90;;;;;;4977493;28;20514;-79
2023/10/02 06:42:17;;;;;;;14.50;8.70;;;16.50;99.90;;;;;;4973063;28;20971;-79
2023/10/02 06:44:54;;;;;;;15.87;8.20;;;16.60;99.90;;;;;;4975730;28;20464;-79
2023/10/02 06:47:23;;;;;;;15.73;7.63;;;16.60;99.90;;;;;;4983839;28;20981;-80
2023/10/02 06:49:51;;;;;;;13.67;7.40;;;16.70;99.90;;;;;;4976205;28;20556;-80
2023/10/02 06:52:18;;;;;;;16.80;8.67;;;16.70;99.90;;;;;;4975003;28;20509;-79
2023/10/02 06:54:48;;;;;;;12.40;7.80;;;16.80;99.90;;;;;;4974362;28;20546;-80
2023/10/02 06:57:17;;;;;;;12.67;8.20;;;16.80;99.90;;;;;;4968861;28;20466;-80
2023/10/02 06:59:52;;;;;;;13.10;8.00;;;16.90;99.90;;;;;;4975186;28;20504;-80
2023/10/02 07:02:24;;;;;;;13.53;8.03;;;16.90;99.90;;;;;;4981610;28;20891;-80
2023/10/02 07:04:52;;;;;;;15.40;8.97;;;17.00;99.90;;;;;;4979309;28;20456;-80
2023/10/02 07:07:24;;;;;;;16.20;8.83;;;17.00;99.90;;;;;;4974904;28;20538;-80
2023/10/02 07:09:52;;;;;;;13.53;8.20;;;17.00;99.90;;;;;;4974409;28;20513;-80
2023/10/02 07:12:20;;;;;;;16.10;8.03;;;17.00;99.90;;;;;;4976690;28;20538;-79
2023/10/02 07:14:49;;;;;;;17.00;8.87;;;17.10;99.90;;;;;;4977144;28;20459;-80
2023/10/02 07:17:23;;;;;;;13.83;7.60;;;17.20;99.90;;;;;;4971312;28;20816;-79
2023/10/02 07:19:51;;;;;;;14.87;8.00;;;17.20;99.90;;;;;;4976529;28;20480;-79
2023/10/02 07:22:23;;;;;;;14.00;7.83;;;17.20;99.90;;;;;;4970725;28;20447;-78
2023/10/02 07:24:52;;;;;;;11.03;7.73;;;17.30;99.90;;;;;;4976132;28;20462;-80
2023/10/02 07:27:26;;;;;;;14.40;7.93;;;17.30;99.90;;;;;;4971469;28;20452;-79
2023/10/02 07:29:56;;;;;;;12.40;7.30;;;17.30;99.90;;;;;;4978754;28;20473;-79
2023/10/02 07:32:26;;;;;;;15.57;8.43;;;17.40;99.90;;;;;;4976944;28;20513;-78
2023/10/02 07:34:54;;;;;;;13.77;8.20;;;17.40;99.90;;;;;;4976221;28;20550;-80
2023/10/02 07:37:24;;;;;;;15.03;8.30;;;17.50;99.90;;;;;;4975626;28;20458;-79
2023/10/02 07:40:00;;;;;;;15.53;8.27;;;17.60;99.90;;;;;;4976327;28;20517;-80
2023/10/02 07:42:29;;;;;;;14.73;8.23;;;17.60;99.90;;;;;;4977079;28;20457;-80
2023/10/02 07:45:24;;;;;;;18.03;10.23;;;17.70;99.90;;;;;;4976040;28;20459;-79
2023/10/02 07:48:10;;;;;;;16.40;8.67;;;17.70;99.90;;;;;;4974816;28;20551;-80
2023/10/02 07:50:41;;;;;;;15.63;7.73;;;17.80;99.90;;;;;;4971524;28;20542;-80
2023/10/02 07:53:08;;;;;;;13.07;8.93;;;17.90;99.90;;;;;;4962453;28;20586;-79
2023/10/02 07:55:39;;;;;;;14.93;8.20;;;17.90;99.90;;;;;;4973956;28;20458;-80
2023/10/02 07:58:07;;;;;;;17.80;8.73;;;18.00;99.90;;;;;;4981367;28;20465;-80
2023/10/02 08:00:40;;;;;;;20.70;10.03;;;18.10;99.90;;;;;;4972602;28;21061;-80
2023/10/02 08:05:51;;;;;;;16.10;8.20;;;18.20;99.90;;;;;;4982508;28;20907;-81
2023/10/02 08:08:18;;;;;;;17.13;8.60;;;18.30;99.90;;;;;;4971194;28;20499;-79
2023/10/02 08:10:50;;;;;;;17.30;9.63;;;18.40;99.90;;;;;;4971952;28;20517;-80
2023/10/02 08:13:17;;;;;;;14.90;9.10;;;18.40;99.90;;;;;;4972434;28;20961;-79
2023/10/02 08:15:45;;;;;;;15.90;9.20;;;18.40;99.90;;;;;;4973337;28;20459;-80
2023/10/02 08:18:18;;;;;;;14.57;8.17;;;18.50;99.90;;;;;;4966638;28;20456;-78
2023/10/02 08:20:48;;;;;;;16.70;9.10;;;18.60;99.90;;;;;;4972164;28;20479;-78
2023/10/02 08:23:23;;;;;;;18.00;9.57;;;18.60;99.90;;;;;;4969530;28;20454;-80
2023/10/02 08:26:00;;;;;;;15.77;9.27;;;18.70;99.90;;;;;;4971920;28;20450;-79
2023/10/02 08:28:29;;;;;;;16.57;9.17;;;18.80;99.90;;;;;;4979503;28;20526;-80
2023/10/02 08:31:03;;;;;;;17.50;8.90;;;18.90;99.90;;;;;;4971626;28;20480;-80
2023/10/02 08:33:31;;;;;;;16.73;9.60;;;19.00;99.90;;;;;;4976033;28;20535;-79
2023/10/02 08:36:09;;;;;;;17.33;9.37;;;19.10;99.90;;;;;;4973897;28;20544;-80
2023/10/02 08:38:36;;;;;;;15.57;9.07;;;19.20;99.90;;;;;;4972274;28;20469;-80
2023/10/02 08:41:04;;;;;;;12.77;8.00;;;19.20;99.90;;;;;;4973883;28;20474;-80
2023/10/02 08:43:32;;;;;;;16.07;9.80;;;19.30;99.90;;;;;;4975539;28;20550;-80
2023/10/02 08:46:01;;;;;;;17.53;8.93;;;19.40;99.90;;;;;;4971514;28;20825;-80
2023/10/02 08:48:31;;;;;;;18.97;10.93;;;19.40;99.90;;;;;;4974935;28;20448;-79
2023/10/02 08:50:59;;;;;;;14.17;8.17;;;19.50;99.90;;;;;;4975515;28;21013;-80
2023/10/02 08:53:27;;;;;;;16.90;8.40;;;19.50;99.90;;;;;;4975712;28;20467;-79
2023/10/02 08:56:22;;;;;;;20.70;8.90;;;19.60;99.90;;;;;;4973611;28;20452;-79
2023/10/02 08:59:14;;;;;;;19.07;10.67;;;19.70;99.90;;;;;;4974415;28;20513;-80
2023/10/02 09:01:39;;;;;;;15.77;9.60;;;19.70;99.90;;;;;;4978874;28;20844;-79
2023/10/02 09:04:22;;;;;;;18.03;10.03;;;19.90;99.90;;;;;;4981976;28;20482;-80
2023/10/02 09:06:53;;;;;;;21.30;9.20;;;20.00;99.90;;;;;;4976449;28;20463;-79
2023/10/02 09:09:26;;;;;;;18.53;10.10;;;20.10;99.90;;;;;;4981252;28;20539;-80
2023/10/02 09:11:57;;;;;;;20.67;9.73;;;20.20;99.90;;;;;;4981008;28;20491;-81
2023/10/02 09:14:39;;;;;;;17.97;9.43;;;20.30;99.90;;;;;;4979457;28;20538;-81
2023/10/02 09:17:12;;;;;;;16.90;9.00;;;20.50;99.90;;;;;;4977554;28;20459;-80
2023/10/02 09:19:41;;;;;;;16.10;9.87;;;20.70;99.90;;;;;;4988479;28;20438;-80
2023/10/02 09:22:15;;;;;;;17.60;10.23;;;20.90;99.90;;;;;;4972684;28;20443;-79
2023/10/02 09:24:55;;;;;;;17.20;9.87;;;20.90;99.90;;;;;;4979194;28;20534;-81
2023/10/02 09:27:30;;;;;;;19.47;10.10;;;21.00;99.90;;;;;;4974376;28;20831;-80
2023/10/02 09:30:19;;;;;;;17.97;9.77;;;21.10;99.90;;;;;;4975154;28;20811;-78
2023/10/02 09:32:50;;;;;;;20.67;9.83;;;21.20;99.90;;;;;;4981051;28;20866;-80
2023/10/02 09:35:29;;;;;;;19.20;10.37;;;21.30;99.90;;;;;;4969271;28;20471;-81
2023/10/02 09:38:02;;;;;;;17.50;10.70;;;21.40;99.90;;;;;;4980311;28;20451;-81
2023/10/02 09:40:51;;;;;;;25.83;10.20;;;21.50;99.90;;;;;;4977510;28;20468;-80
2023/10/02 09:43:20;;;;;;;20.20;9.83;;;21.70;99.90;;;;;;4974070;28;20440;-80
2023/10/02 09:45:49;;;;;;;17.50;9.77;;;21.80;99.90;;;;;;4975361;28;20843;-80
2023/10/02 09:48:53;;;;;;;17.43;9.40;;;22.00;99.90;;;;;;4978835;28;20451;-80
2023/10/02 09:51:45;;;;;;;18.53;10.70;;;22.10;99.90;;;;;;4974152;28;20475;-81
2023/10/02 09:54:28;;;;;;;17.03;10.03;;;22.30;99.90;;;;;;4979805;28;20463;-81
2023/10/02 09:57:11;;;;;;;16.10;9.73;;;22.60;99.90;;;;;;4976272;28;20466;-82
2023/10/02 09:59:45;;;;;;;19.10;11.33;;;22.80;99.90;;;;;;4972826;28;20447;-80
2023/10/02 10:10:47;;;;;;;16.73;10.50;;;23.70;99.90;;;;;;4975555;28;20475;-81
2023/10/02 10:13:25;;;;;;;14.70;9.80;;;23.90;99.90;;;;;;4979784;28;20491;-81
2023/10/02 10:16:29;;;;;;;21.20;11.63;;;24.20;99.90;;;;;;4979813;28;20463;-81
2023/10/02 10:19:33;;;;;;;14.53;10.07;;;24.40;99.90;;;;;;4967002;28;20463;-81
2023/10/02 10:22:00;;;;;;;19.20;10.50;;;24.70;99.90;;;;;;4963701;28;20455;-81
2023/10/02 10:24:58;;;;;;;17.23;10.70;;;24.90;99.90;;;;;;4980305;28;20459;-81
2023/10/02 10:27:58;;;;;;;15.10;9.90;;;25.20;99.90;;;;;;4976616;28;20510;-81
2023/10/02 10:30:39;;;;;;;17.70;10.07;;;25.40;99.90;;;;;;4982777;28;20475;-81
2023/10/02 10:33:35;;;;;;;16.40;10.63;;;25.70;99.90;;;;;;4982075;28;21024;-81
2023/10/02 10:36:09;;;;;;;14.40;9.70;;;26.10;99.90;;;;;;4982497;28;20459;-81
2023/10/02 10:38:41;;;;;;;17.93;9.90;;;26.40;99.90;;;;;;4979127;28;20546;-80
2023/10/02 10:41:14;;;;;;;15.70;10.43;;;26.80;99.90;;;;;;4974774;28;20471;-82
2023/10/02 10:43:55;;;;;;;18.77;11.03;;;27.00;99.90;;;;;;4982817;28;20464;-80
2023/10/02 10:46:27;;;;;;;17.10;9.60;;;27.00;99.90;;;;;;4985809;28;20510;-79
2023/10/02 10:49:07;;;;;;;18.03;10.87;;;27.00;99.90;;;;;;4981119;28;20466;-80
2023/10/02 10:51:34;;;;;;;20.27;11.33;;;27.10;99.90;;;;;;4979524;28;20475;-79
2023/10/02 10:54:13;;;;;;;15.37;10.33;;;27.20;99.90;;;;;;4978485;28;20534;-81
2023/10/02 10:56:44;;;;;;;20.37;12.37;;;27.10;99.90;;;;;;4979843;28;20996;-80
2023/10/02 10:59:13;;;;;;;18.90;11.63;;;27.20;99.90;;;;;;4977877;28;20460;-80
2023/10/02 11:02:09;;;;;;;17.17;10.93;;;27.20;99.90;;;;;;4978716;28;21163;-80
2023/10/02 11:04:39;;;;;;;21.13;12.47;;;27.40;99.90;;;;;;4979116;28;20525;-80
2023/10/02 11:07:19;;;;;;;17.90;10.43;;;27.20;99.90;;;;;;4973284;28;20466;-80
2023/10/02 11:10:14;;;;;;;16.90;10.53;;;27.30;99.90;;;;;;4980203;28;20486;-80
2023/10/02 11:12:46;;;;;;;17.43;10.23;;;27.60;99.90;;;;;;4981026;28;21036;-80
2023/10/02 11:15:43;;;;;;;16.30;10.80;;;27.70;99.90;;;;;;4974417;28;20954;-81
2023/10/02 11:18:20;;;;;;;15.97;10.60;;;27.80;99.90;;;;;;4976222;28;20451;-81
2023/10/02 11:20:51;;;;;;;17.00;12.20;;;27.80;99.90;;;;;;4976412;28;20483;-80
2023/10/02 11:23:24;;;;;;;16.13;10.97;;;27.60;99.90;;;;;;4956953;28;20508;-81
2023/10/02 11:25:55;;;;;;;16.73;11.70;;;27.60;99.90;;;;;;4978923;28;21000;-80
2023/10/02 11:28:29;;;;;;;19.77;11.80;;;27.60;99.90;;;;;;4967740;28;20862;-80
2023/10/02 11:31:30;;;;;;;16.03;10.87;;;27.40;99.90;;;;;;4969904;28;20853;-81
2023/10/02 11:34:02;;;;;;;17.67;11.57;;;27.40;99.90;;;;;;4979123;28;20445;-81
2023/10/02 11:36:33;;;;;;;16.17;10.23;;;27.20;99.90;;;;;;4978832;28;20469;-81
2023/10/02 11:39:07;;;;;;;16.20;10.40;;;27.40;99.90;;;;;;4978115;28;20448;-80
2023/10/02 11:41:36;;;;;;;17.73;10.37;;;27.50;99.90;;;;;;4978916;28;20585;-81
2023/10/02 11:44:06;;;;;;;16.33;10.30;;;27.40;99.90;;;;;;4971659;28;20447;-83
2023/10/02 11:46:33;;;;;;;15.97;9.93;;;27.20;99.90;;;;;;4978916;28;20462;-80
2023/10/02 11:49:00;;;;;;;16.13;9.80;;;26.90;99.90;;;;;;4978745;28;20478;-79
2023/10/02 11:51:29;;;;;;;16.50;10.30;;;26.80;99.90;;;;;;4978382;28;20610;-80
2023/10/02 11:53:57;;;;;;;16.23;10.43;;;26.70;99.90;;;;;;4969463;28;20499;-80
2023/10/02 11:56:25;;;;;;;15.13;9.40;;;26.60;99.90;;;;;;4973793;28;20462;-80
2023/10/02 11:58:54;;;;;;;13.83;9.40;;;26.50;99.90;;;;;;4976411;28;20550;-81
2023/10/02 12:01:22;;;;;;;15.90;10.07;;;26.40;99.90;;;;;;4973286;28;20479;-80
2023/10/02 12:03:49;;;;;;;16.70;10.60;;;26.30;99.90;;;;;;4977303;28;20976;-81
2023/10/02 12:06:17;;;;;;;17.20;10.10;;;26.30;99.90;;;;;;4972276;28;20519;-81
2023/10/02 12:08:45;;;;;;;14.47;9.80;;;26.20;99.90;;;;;;4978663;28;20452;-81
2023/10/02 12:11:13;;;;;;;17.27;10.57;;;26.00;99.90;;;;;;4978429;28;20479;-81
2023/10/02 12:13:40;;;;;;;15.23;10.23;;;26.00;99.90;;;;;;4978909;28;20499;-80
2023/10/02 12:16:11;;;;;;;16.37;10.60;;;25.80;99.90;;;;;;4971809;28;20542;-81
2023/10/02 12:18:37;;;;;;;14.47;9.50;;;25.70;99.90;;;;;;4979347;28;20546;-79
2023/10/02 12:21:09;;;;;;;15.20;10.00;;;25.70;99.90;;;;;;4972525;28;20490;-81
2023/10/02 12:23:39;;;;;;;12.90;9.57;;;25.70;99.90;;;;;;4978377;28;20444;-79
2023/10/02 12:26:09;;;;;;;16.23;9.87;;;25.60;99.90;;;;;;4977703;28;20464;-81
2023/10/02 12:28:36;;;;;;;16.13;10.00;;;25.70;99.90;;;;;;4979749;28;20522;-79
2023/10/02 12:31:10;;;;;;;14.27;8.20;;;25.60;99.90;;;;;;4973915;28;20474;-81
2023/10/02 12:33:38;;;;;;;17.80;10.20;;;25.50;99.90;;;;;;4979060;28;20487;-80
2023/10/02 12:36:12;;;;;;;14.20;10.23;;;25.50;99.90;;;;;;4979736;28;20459;-81
2023/10/02 12:38:40;;;;;;;21.10;10.57;;;25.50;99.90;;;;;;4979801;28;20554;-80
2023/10/02 12:41:17;;;;;;;16.87;10.00;;;25.50;99.90;;;;;;4971890;28;20551;-80
2023/10/02 12:43:45;;;;;;;16.37;10.97;;;25.50;99.90;;;;;;4979528;28;20452;-80
2023/10/02 12:46:15;;;;;;;18.17;10.13;;;25.50;99.90;;;;;;4976378;28;20480;-79
2023/10/02 12:48:43;;;;;;;18.80;10.17;;;25.60;99.90;;;;;;4975598;28;20454;-81
2023/10/02 12:51:10;;;;;;;16.63;11.07;;;25.60;99.90;;;;;;4979809;28;20529;-80
2023/10/02 12:53:37;;;;;;;16.80;10.90;;;25.50;99.90;;;;;;4979913;28;20847;-81
2023/10/02 12:56:05;;;;;;;18.90;13.77;;;25.50;99.90;;;;;;4978638;28;20452;-80
2023/10/02 12:58:32;;;;;;;18.57;13.07;;;25.60;99.90;;;;;;4982027;28;20459;-80
2023/10/02 13:01:00;;;;;;;15.70;10.20;;;25.80;99.90;;;;;;4981863;28;21097;-81
2023/10/02 13:03:29;;;;;;;15.30;10.90;;;26.20;99.90;;;;;;4982472;28;20467;-80
2023/10/02 13:05:57;;;;;;;17.73;10.50;;;26.40;99.90;;;;;;4978065;28;20539;-80
2023/10/02 13:08:25;;;;;;;14.03;10.13;;;26.70;99.90;;;;;;4981615;28;20474;-80
2023/10/02 13:10:52;;;;;;;18.30;10.50;;;26.80;99.90;;;;;;4980141;28;21028;-79
2023/10/02 13:13:19;;;;;;;15.77;9.13;;;26.60;99.90;;;;;;4981498;28;20495;-81
2023/10/02 13:15:48;;;;;;;15.40;9.57;;;26.60;99.90;;;;;;4978582;28;20458;-80
2023/10/02 13:18:15;;;;;;;14.87;9.67;;;26.60;99.90;;;;;;4980870;28;20459;-81
2023/10/02 13:20:44;;;;;;;12.97;9.43;;;26.50;99.90;;;;;;4981692;28;20565;-81
2023/10/02 13:23:12;;;;;;;12.97;8.60;;;26.30;99.90;;;;;;4981503;28;20455;-80
2023/10/02 13:25:40;;;;;;;12.87;8.30;;;26.20;99.90;;;;;;4977485;28;21036;-80
2023/10/02 13:28:11;;;;;;;12.20;8.20;;;26.00;99.90;;;;;;4978879;28;20542;-80